Nearby METAR Reports

 

KBAX - Bad Axe, Michigan, USA
Distance from station: ESE 22mi, 35km
Updated: Tue, 20-Aug-2019 8:19pm EDT
Partly cloudy
Partly cloudy
 Wind from E
Wind: E 7 mph , 11 km/h
Temperature: 75°F , 24°C
Dew Point: 70°F , 21°C
Humidity: 83%
Barometer: 29.91 inHg , 1012.9 hPa
Clouds: Partly cloudy
Visibility: 10 miles , 16 km
Cloud details: Partly cloudy 4900 ft
Partly cloudy 5500 ft
2019/08/21 00:19 KBAX 210019Z AUTO 09006KT 10SM SCT049 SCT055 24/21 A2991 RMK AO2 T02370205
KFNT - Flint, Michigan, USA
Distance from station: SSW 68mi, 109km
Updated: Tue, 20-Aug-2019 8:00pm EDT
Partly cloudy
Partly cloudy
 Wind from SSE
Wind: SSE 3 mph , 6 km/h
Temperature: 72°F , 22°C
Dew Point: 66°F , 19°C
Humidity: 83%
Barometer: 29.93 inHg , 1013.5 hPa
Clouds: Partly cloudy
Visibility: 10 miles , 16 km
Cloud details: Few Clouds 4400 ft
Partly cloudy 11000 ft
2019/08/21 00:00 KFNT 210000Z 16003KT 10SM FEW044 SCT110 22/19 A2993 RMK AO2 LTG DSNT ALQDS T02170194
KMBS - Saginaw, Michigan, USA
Distance from station: SW 44mi, 70km
Updated: Tue, 20-Aug-2019 7:53pm EDT
Overcast
Overcast
 Wind from ESE
Wind: ESE 3 mph , 6 km/h
Temperature: 73°F , 23°C
Dew Point: 66°F , 19°C
Humidity: 78%
Barometer: 29.91 inHg , 1012.9 hPa
Clouds: Overcast
Visibility: 10 miles , 16 km
Cloud details: Few Clouds 5000 ft
Partly cloudy 11000 ft
Overcast 20000 ft
2019/08/20 23:53 KMBS 202353Z 12003KT 10SM FEW050 SCT110 OVC200 23/19 A2991 RMK AO2 LTG DSNT SE AND SW SLP125 60003 T02330194 10294 20233 58011
 
KDTW - Detroit/Wayne, Michigan, USA
Distance from station: SSE 117mi, 188km
Updated: Tue, 20-Aug-2019 7:53pm EDT
Light thunderstorm, Rain, Overcast
Light thunderstorm, Rain, Overcast
 Wind from SW
Wind: SW 18 mph , 30 km/h, Gust: 25 mph , 41 km/h
Temperature: 77°F , 25°C
Dew Point: 70°F , 21°C
Humidity: 79%
Barometer: 29.96 inHg , 1014.6 hPa
Summary: Light thunderstorm, Rain
Clouds: Overcast
Visibility: 8 miles , 13 km
Cloud details: Few Clouds 1500 ft
Mostly cloudy 3000 ft
Overcast 4500 ft
2019/08/20 23:53 KDTW 202353Z 23016G22KT 8SM -TSRA FEW015 BKN030CB OVC045 25/21 A2996 RMK AO2 LTG DSNT ALQDS RAB50 SLP141 FRQ LTGICCGCC ALQDS AND OHD TS ALQDS AND OHD MOV NE P0000 60002 T02500206 10306 20239 53003 $
KP58 - Port Hope, Michigan, USA
Distance from station: ENE 30mi, 48km
Updated: Tue, 20-Aug-2019 7:51pm EDT

 Wind from WNW
Wind: WNW 3 mph , 6 km/h
Temperature: 73°F , 23°C
Dew Point: 72°F , 22°C
Humidity: 94%
Barometer: 29.90 inHg , 1012.5 hPa
2019/08/20 23:51 KP58 202351Z AUTO 30003KT 23/22 A2990 RMK AO1 SLP119 60007 T02330222 10278 20233 55016
KCFS - Caro/Tuscola, Michigan, USA
Distance from station: S 31mi, 50km
Updated: Tue, 20-Aug-2019 8:15pm EDT
Clear
Clear
 Wind from SSW
Wind: SSW 3 mph , 6 km/h
Temperature: 75°F , 24°C
Dew Point: 68°F , 20°C
Humidity: 78%
Barometer: 29.91 inHg , 1012.9 hPa
Clouds: Clear
Visibility: 10 miles , 16 km
2019/08/21 00:15 KCFS 210015Z AUTO 20003KT 10SM CLR 24/20 A2991 RMK AO2 T02400200
 
KPHN - Port Huron, Michigan, USA
Distance from station: SSE 81mi, 131km
Updated: Tue, 20-Aug-2019 4:25pm EDT
NOT Current

 
2019/08/20 20:25 KPHN 202025Z AUTO RMK AO2 PWINO
KPTK - Pontiac, Michigan, USA
Distance from station: S 86mi, 138km
Updated: Tue, 20-Aug-2019 8:20pm EDT
Light thunderstorm, Rain, Mist, Overcast
Light thunderstorm, Rain, Mist, Overcast
 Wind from NW
Wind: NW 18 mph , 30 km/h
Temperature: 70°F , 21°C
Dew Point: 66°F , 19°C
Humidity: 88%
Barometer: 29.94 inHg , 1013.9 hPa
Summary: Light thunderstorm, Rain, Mist
Clouds: Overcast
Visibility: 3 miles , 5 km
Cloud details: Partly cloudy 2900 ft
Mostly cloudy 3300 ft
Overcast 4500 ft
2019/08/21 00:20 KPTK 210020Z 31016KT 3SM R09R/6000VP6000FT -TSRA BR SCT029 BKN033CB OVC045 21/19 A2994 RMK AO2 PK WND 27033/2359 WSHFT 0006 LTG DSNT ALQDS OCNL LTGIC N-E-S TS N-E-S MOV E P0018 T02060189 $
KMTC - Selfridge Angb, Michigan, USA
Distance from station: SSE 94mi, 151km
Updated: Tue, 20-Aug-2019 8:18pm EDT
Nearby thunderstorm, Overcast
Nearby thunderstorm, Overcast
 Wind from SSE
Wind: SSE 9 mph , 15 km/h
Temperature: 79°F , 26°C
Dew Point: 79°F , 26°C
Humidity: 100%
Barometer: 29.91 inHg , 1012.9 hPa
Summary: Nearby Thunderstorm
Clouds: Overcast
Visibility: 10 miles , 16 km
Cloud details: Mostly cloudy 5000 ft
Overcast 20000 ft
2019/08/21 00:18 KMTC 210018Z 16008KT 10SM VCTS BKN050 OVC200 26/26 A2991 RMK AO2A OCNL LTGICCG SE-S TS 8SE-10S MOV NE SLP130 $